createdAt,value
2024-04-25T00:00:09.560Z,7.15
2024-04-25T00:02:36.289Z,9.25
2024-04-25T00:05:05.280Z,5.90
2024-04-25T00:07:31.910Z,6.78
2024-04-25T00:09:58.482Z,8.68
2024-04-25T00:12:25.159Z,8.02
2024-04-25T00:14:51.715Z,11.10
2024-04-25T00:17:18.393Z,6.07
2024-04-25T00:19:45.012Z,10.43
2024-04-25T00:22:11.635Z,5.38
2024-04-25T00:24:38.212Z,9.30
2024-04-25T00:27:04.771Z,8.82
2024-04-25T00:29:31.308Z,6.70
2024-04-25T00:31:57.869Z,8.25
2024-04-25T00:34:24.370Z,11.02
2024-04-25T00:36:50.975Z,11.95
2024-04-25T00:39:17.488Z,10.30
2024-04-25T00:41:44.102Z,9.43
2024-04-25T00:44:10.667Z,10.45
2024-04-25T00:46:39.623Z,11.90
2024-04-25T00:49:07.844Z,9.27
2024-04-25T00:51:34.906Z,11.25
2024-04-25T00:54:01.613Z,7.07
2024-04-25T00:56:28.435Z,9.43
2024-04-25T00:58:58.273Z,9.93
2024-04-25T01:01:25.120Z,16.25
2024-04-25T01:03:54.503Z,13.25
2024-04-25T01:06:22.685Z,9.10
2024-04-25T01:08:49.424Z,14.60
2024-04-25T01:11:16.057Z,10.63
2024-04-25T01:13:43.207Z,13.30
2024-04-25T01:16:13.355Z,9.57
2024-04-25T01:18:40.373Z,15.43
2024-04-25T01:21:06.931Z,12.95
2024-04-25T01:23:39.204Z,11.52
2024-04-25T01:26:09.805Z,10.05
2024-04-25T01:28:37.661Z,10.68
2024-04-25T01:31:05.405Z,9.57
2024-04-25T01:33:36.509Z,7.40
2024-04-25T01:36:03.300Z,10.90
2024-04-25T01:38:29.803Z,9.50
2024-04-25T01:40:56.364Z,10.27
2024-04-25T01:43:23.098Z,13.75
2024-04-25T01:45:49.646Z,12.80
2024-04-25T01:48:16.459Z,12.60
2024-04-25T01:50:43.147Z,10.50
2024-04-25T01:53:09.767Z,9.45
2024-04-25T01:55:36.552Z,13.02
2024-04-25T01:58:03.223Z,11.23
2024-04-25T02:00:29.727Z,11.82
2024-04-25T02:02:56.337Z,8.73
2024-04-25T02:05:22.951Z,12.43
2024-04-25T02:07:50.865Z,11.18
2024-04-25T02:10:17.439Z,10.93
2024-04-25T02:12:43.986Z,12.02
2024-04-25T02:15:10.503Z,10.35
2024-04-25T02:17:41.521Z,17.63
2024-04-25T02:20:27.845Z,13.25
2024-04-25T02:23:14.590Z,11.80
2024-04-25T02:25:41.329Z,10.98
2024-04-25T02:28:09.079Z,11.48
2024-04-25T02:30:36.642Z,11.20
2024-04-25T02:33:03.382Z,12.02
2024-04-25T02:35:30.046Z,20.23
2024-04-25T02:37:56.577Z,8.32
2024-04-25T02:40:23.171Z,11.88
2024-04-25T02:42:49.708Z,12.13
2024-04-25T02:45:16.253Z,12.32
2024-04-25T02:47:42.956Z,8.75
2024-04-25T02:50:11.850Z,10.05
2024-04-25T02:52:39.575Z,11.88
2024-04-25T02:55:06.714Z,11.85
2024-04-25T02:57:34.471Z,8.82
2024-04-25T03:00:01.007Z,12.48
2024-04-25T03:02:28.237Z,10.43
2024-04-25T03:04:54.865Z,12.27
2024-04-25T03:07:21.545Z,9.80
2024-04-25T03:09:48.064Z,12.30
2024-04-25T03:12:14.671Z,13.30
2024-04-25T03:14:41.329Z,11.27
2024-04-25T03:17:07.981Z,10.82
2024-04-25T03:19:34.517Z,9.30
2024-04-25T03:22:00.995Z,9.40
2024-04-25T03:24:28.295Z,11.30
2024-04-25T03:26:54.795Z,11.55
2024-04-25T03:29:21.351Z,9.02
2024-04-25T03:31:49.751Z,9.95
2024-04-25T03:34:16.370Z,8.20
2024-04-25T03:36:42.871Z,7.68
2024-04-25T03:39:09.879Z,7.57
2024-04-25T03:41:36.442Z,9.52
2024-04-25T03:44:03.052Z,6.43
2024-04-25T03:46:29.586Z,7.30
2024-04-25T03:48:56.211Z,8.13
2024-04-25T03:51:22.810Z,9.77
2024-04-25T03:53:49.383Z,7.88
2024-04-25T03:56:16.099Z,7.57
2024-04-25T03:58:42.615Z,10.50
2024-04-25T04:01:09.217Z,8.48
2024-04-25T04:03:35.751Z,12.27
2024-04-25T04:06:02.278Z,12.60
2024-04-25T04:08:28.805Z,10.57
2024-04-25T04:10:55.545Z,7.65
2024-04-25T04:13:22.138Z,9.63
2024-04-25T04:15:48.699Z,8.93
2024-04-25T04:18:15.221Z,6.90
2024-04-25T04:20:45.184Z,9.57
2024-04-25T04:23:12.804Z,9.30
2024-04-25T04:25:39.296Z,8.77
2024-04-25T04:28:09.280Z,7.07
2024-04-25T04:30:36.862Z,7.13
2024-04-25T04:33:03.650Z,11.57
2024-04-25T04:35:30.318Z,7.30
2024-04-25T04:37:56.983Z,10.35
2024-04-25T04:40:23.572Z,7.00
2024-04-25T04:42:50.205Z,9.32
2024-04-25T04:45:16.788Z,12.13
2024-04-25T04:47:43.426Z,8.43
2024-04-25T04:50:09.997Z,9.20
2024-04-25T04:52:36.576Z,7.95
2024-04-25T04:55:03.147Z,8.27
2024-04-25T04:57:29.696Z,8.70
2024-04-25T04:59:56.497Z,8.48
2024-04-25T05:02:23.098Z,9.15
2024-04-25T05:04:49.695Z,6.38
2024-04-25T05:07:16.216Z,9.50
2024-04-25T05:09:42.771Z,8.70
2024-04-25T05:12:09.571Z,10.23
2024-04-25T05:14:36.217Z,9.65
2024-04-25T05:17:02.771Z,11.18
2024-04-25T05:19:29.261Z,9.85
2024-04-25T05:21:56.847Z,10.25
2024-04-25T05:24:23.487Z,11.10
2024-04-25T05:26:50.027Z,8.18
2024-04-25T05:29:16.544Z,10.48
2024-04-25T05:31:43.113Z,8.35
2024-04-25T05:34:09.646Z,5.97
2024-04-25T05:36:36.175Z,6.47
2024-04-25T05:39:02.694Z,7.22
2024-04-25T05:41:29.268Z,7.40
2024-04-25T05:43:55.772Z,7.55
2024-04-25T05:46:22.863Z,7.47
2024-04-25T05:48:49.422Z,11.20
2024-04-25T05:51:16.051Z,9.30
2024-04-25T05:53:42.742Z,8.52
2024-04-25T05:56:09.382Z,8.35
2024-04-25T05:58:37.436Z,8.65
2024-04-25T06:01:04.326Z,7.28
2024-04-25T06:03:30.963Z,7.80
2024-04-25T06:05:57.591Z,7.75
2024-04-25T06:08:24.174Z,11.15
2024-04-25T06:10:50.959Z,7.72
2024-04-25T06:13:18.966Z,9.13
2024-04-25T06:15:45.612Z,10.35
2024-04-25T06:18:12.353Z,7.03
2024-04-25T06:20:39.080Z,12.48
2024-04-25T06:23:06.895Z,8.65
2024-04-25T06:25:34.959Z,9.88
2024-04-25T06:28:02.016Z,9.48
2024-04-25T06:30:28.592Z,11.43
2024-04-25T06:32:55.496Z,6.70
2024-04-25T06:35:22.159Z,8.70
2024-04-25T06:37:48.706Z,10.50
2024-04-25T06:40:15.595Z,19.63
2024-04-25T06:42:42.183Z,9.80
2024-04-25T06:45:08.710Z,8.27
2024-04-25T06:47:35.438Z,7.97
2024-04-25T06:50:02.013Z,10.35
2024-04-25T06:52:28.606Z,9.02
2024-04-25T06:54:55.129Z,6.32
2024-04-25T06:57:21.652Z,11.30
2024-04-25T06:59:51.474Z,10.93
2024-04-25T07:02:20.544Z,8.15
2024-04-25T07:04:47.663Z,9.85
2024-04-25T07:07:14.228Z,8.80
2024-04-25T07:09:40.813Z,7.78
2024-04-25T07:12:07.697Z,9.45
2024-04-25T07:14:34.392Z,9.70
2024-04-25T07:17:00.971Z,13.98
2024-04-25T07:19:27.562Z,8.75
2024-04-25T07:21:54.268Z,5.00
2024-04-25T07:24:22.480Z,8.18
2024-04-25T07:26:49.138Z,8.98
2024-04-25T07:29:16.426Z,8.73
2024-04-25T07:31:43.005Z,11.30
2024-04-25T07:34:10.057Z,6.45
2024-04-25T07:36:37.387Z,8.50
2024-04-25T07:39:05.782Z,8.70
2024-04-25T07:41:33.430Z,7.68
2024-04-25T07:43:59.972Z,4.97
2024-04-25T07:46:26.920Z,7.65
2024-04-25T07:48:53.828Z,9.02
2024-04-25T07:51:20.387Z,8.75
2024-04-25T07:53:46.942Z,6.55
2024-04-25T07:56:13.673Z,10.23
2024-04-25T07:58:40.240Z,7.03
2024-04-25T08:01:07.760Z,8.18
2024-04-25T08:03:35.243Z,7.00
2024-04-25T08:06:01.888Z,5.03
2024-04-25T08:08:28.472Z,7.18
2024-04-25T08:10:55.144Z,7.97
2024-04-25T08:13:21.670Z,6.88
2024-04-25T08:15:48.299Z,7.95
2024-04-25T08:18:15.012Z,5.35
2024-04-25T08:20:41.634Z,7.13
2024-04-25T08:23:08.271Z,5.43
2024-04-25T08:25:34.807Z,10.88
2024-04-25T08:28:01.325Z,3.53
2024-04-25T08:30:27.840Z,5.32
2024-04-25T08:32:55.461Z,4.80
2024-04-25T08:35:22.200Z,6.28
2024-04-25T08:37:48.788Z,7.30
2024-04-25T08:40:15.483Z,6.70
2024-04-25T08:42:49.423Z,7.13
2024-04-25T08:45:16.369Z,5.47
2024-04-25T08:47:44.426Z,6.13
2024-04-25T08:50:13.210Z,5.88
2024-04-25T08:52:42.842Z,4.65
2024-04-25T08:55:09.816Z,4.60
2024-04-25T08:57:36.563Z,10.27
2024-04-25T09:00:03.937Z,7.50
2024-04-25T09:02:34.535Z,4.00
2024-04-25T09:05:01.390Z,5.22
2024-04-25T09:07:28.713Z,4.30
2024-04-25T09:09:57.245Z,5.03
2024-04-25T09:12:28.042Z,12.73
2024-04-25T09:14:54.599Z,5.13
2024-04-25T09:17:21.336Z,5.03
2024-04-25T09:19:47.970Z,4.13
2024-04-25T09:22:14.500Z,4.97
2024-04-25T09:24:41.079Z,5.93
2024-04-25T09:27:08.214Z,4.43
2024-04-25T09:29:35.786Z,4.20
2024-04-25T09:32:03.964Z,8.10
2024-04-25T09:34:30.923Z,4.32
2024-04-25T09:36:59.853Z,5.60
2024-04-25T09:39:26.391Z,4.72
2024-04-25T09:41:53.063Z,4.72
2024-04-25T09:44:20.299Z,2.83
2024-04-25T09:47:03.346Z,4.50
2024-04-25T09:49:37.319Z,4.22
2024-04-25T09:52:17.553Z,4.32
2024-04-25T09:54:48.490Z,5.35
2024-04-25T09:57:20.740Z,4.80
2024-04-25T10:00:08.352Z,6.82
2024-04-25T10:02:36.092Z,5.95
2024-04-25T10:05:02.725Z,4.65
2024-04-25T10:07:31.416Z,7.07
2024-04-25T10:09:59.062Z,4.30
2024-04-25T10:12:26.760Z,5.15
2024-04-25T10:15:03.217Z,3.88
2024-04-25T10:17:32.146Z,5.07
2024-04-25T10:20:01.797Z,4.05
2024-04-25T10:22:30.803Z,5.55
2024-04-25T10:25:05.037Z,8.35
2024-04-25T10:27:32.265Z,7.78
2024-04-25T10:30:04.392Z,5.80
2024-04-25T10:32:32.299Z,4.53
2024-04-25T10:34:59.492Z,6.70
2024-04-25T10:37:26.013Z,5.88
2024-04-25T10:39:52.601Z,6.20
2024-04-25T10:42:23.520Z,6.80
2024-04-25T10:44:55.357Z,6.43
2024-04-25T10:47:22.571Z,7.22
2024-04-25T10:49:49.599Z,3.80
2024-04-25T10:52:16.325Z,5.55
2024-04-25T10:54:43.073Z,5.40
2024-04-25T10:57:09.608Z,5.70
2024-04-25T10:59:36.182Z,2.08
2024-04-25T11:02:05.220Z,2.13
2024-04-25T11:04:39.987Z,4.40
2024-04-25T11:09:35.116Z,4.68
2024-04-25T11:12:02.307Z,4.47
2024-04-25T11:14:29.348Z,3.55
2024-04-25T11:16:55.954Z,2.88
2024-04-25T11:19:26.822Z,3.47
2024-04-25T11:21:54.435Z,2.83
2024-04-25T11:24:23.357Z,2.97
2024-04-25T11:26:54.256Z,3.38
2024-04-25T11:29:21.414Z,4.57
2024-04-25T11:31:48.038Z,2.67
2024-04-25T11:34:25.243Z,4.35
2024-04-25T11:37:03.042Z,2.90
2024-04-25T11:39:31.397Z,2.92
2024-04-25T11:42:02.035Z,3.25
2024-04-25T11:44:30.547Z,3.97
2024-04-25T11:46:58.089Z,5.50
2024-04-25T11:49:24.616Z,3.08
2024-04-25T11:51:51.303Z,1.42
2024-04-25T11:54:17.958Z,2.15
2024-04-25T11:56:44.588Z,2.40
2024-04-25T11:59:11.262Z,3.35
2024-04-25T12:01:37.819Z,4.45
2024-04-25T12:04:05.917Z,2.85
2024-04-25T12:06:33.135Z,1.55
2024-04-25T12:08:59.633Z,4.05
2024-04-25T12:11:26.260Z,1.77
2024-04-25T12:13:52.814Z,1.13
2024-04-25T12:16:19.383Z,1.58
2024-04-25T12:18:45.944Z,6.18
2024-04-25T12:21:12.533Z,4.13
2024-04-25T12:23:39.040Z,1.80
2024-04-25T12:26:05.982Z,1.35
2024-04-25T12:28:35.108Z,2.30
2024-04-25T12:31:02.692Z,1.60
2024-04-25T12:33:29.591Z,3.08
2024-04-25T12:35:56.344Z,3.83
2024-04-25T12:38:23.242Z,4.80
2024-04-25T12:40:49.843Z,5.32
2024-04-25T12:43:16.430Z,3.38
2024-04-25T12:45:43.826Z,3.22
2024-04-25T12:48:11.324Z,3.65
2024-04-25T12:50:38.880Z,2.15
2024-04-25T12:53:05.439Z,2.60
2024-04-25T12:55:31.961Z,5.10
2024-04-25T12:57:58.682Z,3.00
2024-04-25T13:00:26.222Z,2.55
2024-04-25T13:02:53.193Z,1.48
2024-04-25T13:05:19.832Z,3.53
2024-04-25T13:07:46.453Z,3.85
2024-04-25T13:10:13.138Z,3.47
2024-04-25T13:12:39.704Z,3.75
2024-04-25T13:15:06.622Z,4.13
2024-04-25T13:17:35.802Z,2.20
2024-04-25T13:20:03.994Z,3.17
2024-04-25T13:22:30.503Z,4.50
2024-04-25T13:24:57.184Z,2.83
2024-04-25T13:27:24.261Z,3.75
2024-04-25T13:29:51.236Z,1.85
2024-04-25T13:32:18.240Z,2.80
2024-04-25T13:34:44.916Z,1.80
2024-04-25T13:37:11.465Z,2.40
2024-04-25T13:39:40.305Z,2.10
2024-04-25T13:42:11.459Z,3.60
2024-04-25T13:44:38.043Z,2.05
2024-04-25T13:47:07.080Z,4.28
2024-04-25T13:49:33.591Z,1.98
2024-04-25T13:52:00.182Z,2.08
2024-04-25T13:54:26.751Z,2.38
2024-04-25T13:56:53.293Z,1.27
2024-04-25T13:59:22.218Z,1.73
2024-04-25T14:01:49.812Z,2.53
2024-04-25T14:04:16.408Z,2.25
2024-04-25T14:06:44.378Z,2.55
2024-04-25T14:09:11.182Z,2.92
2024-04-25T14:11:37.845Z,2.75
2024-04-25T14:14:05.916Z,2.22
2024-04-25T14:16:32.505Z,2.47
2024-04-25T14:18:59.084Z,2.22
2024-04-25T14:21:25.698Z,2.97
2024-04-25T14:23:52.249Z,3.33
2024-04-25T14:26:37.378Z,7.80
2024-04-25T14:31:30.330Z,5.22
2024-04-25T14:33:57.057Z,2.97
2024-04-25T14:36:23.767Z,4.45
2024-04-25T14:38:50.512Z,1.98
2024-04-25T14:41:19.262Z,2.42
2024-04-25T14:43:51.546Z,4.32
2024-04-25T14:46:21.410Z,3.88
2024-04-25T14:48:49.033Z,4.88
2024-04-25T14:51:15.763Z,3.92
2024-04-25T14:53:42.387Z,2.42
2024-04-25T14:56:09.438Z,3.25
2024-04-25T14:58:35.977Z,2.22
2024-04-25T15:01:02.523Z,2.90
2024-04-25T15:03:29.104Z,4.40
2024-04-25T15:05:55.746Z,2.42
2024-04-25T15:08:22.377Z,2.83
2024-04-25T15:10:48.916Z,2.30
2024-04-25T15:13:21.679Z,3.15
2024-04-25T15:15:52.208Z,2.78
2024-04-25T15:18:18.989Z,3.60
2024-04-25T15:20:45.620Z,3.05
2024-04-25T15:23:12.159Z,4.18
2024-04-25T15:25:38.740Z,4.70
2024-04-25T15:28:05.339Z,2.10
2024-04-25T15:30:32.394Z,2.47
2024-04-25T15:32:59.229Z,2.20
2024-04-25T15:35:25.911Z,2.15
2024-04-25T15:37:52.498Z,2.22
2024-04-25T15:40:19.008Z,2.55
2024-04-25T15:42:47.616Z,1.83
2024-04-25T15:45:14.252Z,2.75
2024-04-25T15:47:40.976Z,1.98
2024-04-25T15:50:07.965Z,1.58
2024-04-25T15:52:35.951Z,1.73
2024-04-25T15:55:02.943Z,2.67
2024-04-25T15:57:29.486Z,3.33
2024-04-25T15:59:56.046Z,3.63
2024-04-25T16:02:22.989Z,3.17
2024-04-25T16:04:52.027Z,2.42
2024-04-25T16:07:18.897Z,3.58
2024-04-25T16:09:48.255Z,4.28
2024-04-25T16:12:14.895Z,2.75
2024-04-25T16:14:41.934Z,3.55
2024-04-25T16:17:08.484Z,3.70
2024-04-25T16:19:36.620Z,7.00
2024-04-25T16:22:03.585Z,7.38
2024-04-25T16:24:30.135Z,4.82
2024-04-25T16:26:56.740Z,2.97
2024-04-25T16:29:25.755Z,2.97
2024-04-25T16:31:53.396Z,2.63
2024-04-25T16:34:20.321Z,2.65
2024-04-25T16:36:46.911Z,3.60
2024-04-25T16:39:13.505Z,2.53
2024-04-25T16:41:40.014Z,4.13
2024-04-25T16:44:06.592Z,2.30
2024-04-25T16:46:33.254Z,2.65
2024-04-25T16:48:59.828Z,2.28
2024-04-25T16:51:29.583Z,3.03
2024-04-25T16:53:56.218Z,3.30
2024-04-25T16:56:22.859Z,2.92
2024-04-25T16:58:50.382Z,1.85
2024-04-25T17:01:17.805Z,3.13
2024-04-25T17:03:45.241Z,2.13
2024-04-25T17:06:12.023Z,3.80
2024-04-25T17:08:38.651Z,3.25
2024-04-25T17:11:05.336Z,2.22
2024-04-25T17:13:31.986Z,3.28
2024-04-25T17:15:58.531Z,5.60
2024-04-25T17:18:25.437Z,3.17
2024-04-25T17:20:52.328Z,3.20
2024-04-25T17:23:22.075Z,4.40
2024-04-25T17:25:48.764Z,4.10
2024-04-25T17:28:15.316Z,4.78
2024-04-25T17:30:41.832Z,4.05
2024-04-25T17:33:08.515Z,3.45
2024-04-25T17:35:35.174Z,2.78
2024-04-25T17:38:01.806Z,4.28
2024-04-25T17:40:28.405Z,6.03
2024-04-25T17:42:54.961Z,4.28
2024-04-25T17:45:22.372Z,3.80
2024-04-25T17:47:49.124Z,4.15
2024-04-25T17:50:16.012Z,2.53
2024-04-25T17:52:42.816Z,2.65
2024-04-25T17:55:12.306Z,3.40
2024-04-25T17:57:43.773Z,2.45
2024-04-25T18:00:11.284Z,3.50
2024-04-25T18:02:40.076Z,5.82
2024-04-25T18:05:06.913Z,4.60
2024-04-25T18:07:37.097Z,3.08
2024-04-25T18:10:04.567Z,1.98
2024-04-25T18:12:31.127Z,3.42
2024-04-25T18:14:57.651Z,5.47
2024-04-25T18:17:26.420Z,4.97
2024-04-25T18:19:53.617Z,2.45
2024-04-25T18:22:24.743Z,3.78
2024-04-25T18:24:51.878Z,6.28
2024-04-25T18:27:21.069Z,3.28
2024-04-25T18:29:48.227Z,2.65
2024-04-25T18:32:14.926Z,7.60
2024-04-25T18:34:41.850Z,1.80
2024-04-25T18:37:10.034Z,2.50
2024-04-25T18:39:36.697Z,2.92
2024-04-25T18:42:06.231Z,3.45
2024-04-25T18:44:34.184Z,3.13
2024-04-25T18:47:00.687Z,4.68
2024-04-25T18:49:30.375Z,3.35
2024-04-25T18:51:56.927Z,2.80
2024-04-25T18:54:23.508Z,2.65
2024-04-25T18:56:50.480Z,2.55
2024-04-25T18:59:18.271Z,4.07
2024-04-25T19:01:45.151Z,5.82
2024-04-25T19:04:11.728Z,2.75
2024-04-25T19:06:38.984Z,3.25
2024-04-25T19:09:05.544Z,1.80
2024-04-25T19:11:32.169Z,2.40
2024-04-25T19:13:58.755Z,2.53
2024-04-25T19:16:25.541Z,3.97
2024-04-25T19:18:52.311Z,5.63
2024-04-25T19:21:18.920Z,4.20
2024-04-25T19:23:45.652Z,2.75
2024-04-25T19:26:13.089Z,2.05
2024-04-25T19:28:40.684Z,1.73
2024-04-25T19:31:07.286Z,3.83
2024-04-25T19:33:36.814Z,3.55
2024-04-25T19:36:04.412Z,4.82
2024-04-25T19:38:31.084Z,3.67
2024-04-25T19:40:59.616Z,4.00
2024-04-25T19:43:26.134Z,3.55
2024-04-25T19:45:52.652Z,3.05
2024-04-25T19:48:19.331Z,3.13
2024-04-25T19:50:45.960Z,2.65
2024-04-25T19:53:12.923Z,3.50
2024-04-25T19:55:39.565Z,2.45
2024-04-25T19:58:06.157Z,3.53
2024-04-25T20:00:32.844Z,4.75
2024-04-25T20:02:59.457Z,3.17
2024-04-25T20:05:26.051Z,2.90
2024-04-25T20:07:52.599Z,3.03
2024-04-25T20:10:19.078Z,2.17
2024-04-25T20:12:45.601Z,3.35
2024-04-25T20:15:12.400Z,2.30
2024-04-25T20:17:57.786Z,4.40
2024-04-25T20:20:42.826Z,4.60
2024-04-25T20:25:35.963Z,7.50
2024-04-25T20:28:02.659Z,2.10
2024-04-25T20:30:29.306Z,4.78
2024-04-25T20:32:55.913Z,3.92
2024-04-25T20:35:23.943Z,3.40
2024-04-25T20:37:50.510Z,5.50
2024-04-25T20:40:17.068Z,5.07
2024-04-25T20:42:43.969Z,4.85
2024-04-25T20:45:10.491Z,4.05
2024-04-25T20:47:37.882Z,4.28
2024-04-25T20:50:04.853Z,3.40
2024-04-25T20:52:32.336Z,2.58
2024-04-25T20:54:59.026Z,4.65
2024-04-25T20:57:25.685Z,4.05
2024-04-25T20:59:52.446Z,7.32
2024-04-25T21:02:19.086Z,5.82
2024-04-25T21:04:45.676Z,4.15
2024-04-25T21:07:12.259Z,4.60
2024-04-25T21:09:39.193Z,8.15
2024-04-25T21:12:06.239Z,5.90
2024-04-25T21:16:59.430Z,4.53
2024-04-25T21:19:25.984Z,3.75
2024-04-25T21:21:52.552Z,6.25
2024-04-25T21:24:19.164Z,4.90
2024-04-25T21:26:49.375Z,3.25
2024-04-25T21:29:16.167Z,3.92
2024-04-25T21:31:43.096Z,3.67
2024-04-25T21:34:10.799Z,3.00
2024-04-25T21:36:39.589Z,4.75
2024-04-25T21:39:06.614Z,8.05
2024-04-25T21:41:45.445Z,5.65
2024-04-25T21:44:13.121Z,5.55
2024-04-25T21:46:42.219Z,5.07
2024-04-25T21:49:09.710Z,6.03
2024-04-25T21:51:42.099Z,5.10
2024-04-25T21:54:08.679Z,6.97
2024-04-25T21:56:35.538Z,4.05
2024-04-25T21:59:02.477Z,6.05
2024-04-25T22:01:30.567Z,6.75
2024-04-25T22:03:59.598Z,5.30
2024-04-25T22:06:26.654Z,7.15
2024-04-25T22:08:53.295Z,5.05
2024-04-25T22:11:19.892Z,4.85
2024-04-25T22:13:46.521Z,6.53
2024-04-25T22:16:14.118Z,6.43
2024-04-25T22:18:40.966Z,4.50
2024-04-25T22:21:07.570Z,4.65
2024-04-25T22:23:34.095Z,3.50
2024-04-25T22:26:00.631Z,4.32
2024-04-25T22:28:27.236Z,7.18
2024-04-25T22:30:53.777Z,3.50
2024-04-25T22:33:20.496Z,5.88
2024-04-25T22:35:47.148Z,4.78
2024-04-25T22:38:13.787Z,3.83
2024-04-25T22:40:40.326Z,4.07
2024-04-25T22:43:06.843Z,3.47
2024-04-25T22:45:39.225Z,4.20
2024-04-25T22:48:08.299Z,4.50
2024-04-25T22:50:34.930Z,5.95
2024-04-25T22:53:01.465Z,7.13
2024-04-25T22:55:27.987Z,4.13
2024-04-25T22:57:54.564Z,4.60
2024-04-25T23:00:21.127Z,5.53
2024-04-25T23:02:47.787Z,2.60
2024-04-25T23:05:14.388Z,3.63
2024-04-25T23:07:44.359Z,4.47
2024-04-25T23:10:10.868Z,3.38
2024-04-25T23:12:37.451Z,4.20
2024-04-25T23:15:05.021Z,4.03
2024-04-25T23:17:31.648Z,3.35
2024-04-25T23:19:58.308Z,3.70
2024-04-25T23:22:24.821Z,7.55
2024-04-25T23:24:51.359Z,5.78
2024-04-25T23:27:17.894Z,4.97
2024-04-25T23:29:44.490Z,3.95
2024-04-25T23:32:11.027Z,5.63
2024-04-25T23:34:37.987Z,3.88
2024-04-25T23:37:04.527Z,4.05
2024-04-25T23:39:31.169Z,5.70
2024-04-25T23:41:58.567Z,4.00
2024-04-25T23:44:25.138Z,5.68
2024-04-25T23:46:51.703Z,4.13
2024-04-25T23:49:18.424Z,5.10
2024-04-25T23:51:44.984Z,4.60
2024-04-25T23:54:11.501Z,4.90
2024-04-25T23:56:38.067Z,3.15
2024-04-25T23:59:04.762Z,4.18
